Archival Weather

Snohomish County (Paine Fld)

Everett, Washington (KPAE)

Report from: Tuesday, November 14, 2023 1:53 AM PST
Current time: Saturday, June 22, 2024 2:09 AM PDT

Current weather – Weather history – Daily summaries
Weather forecast

Temperature2.8°C (37.0°F)
Wind chill0.7°C (33.3°F)
Dew point1.1°C (34.0°F)
Winds 4 kts (2.1 m/s, 4.6 mph) Northeast (40°)
Visibility10 mi. (16.1 km)
Clouds Sky clear
Altimeter30.16 in.Hg (1021 mB)
Relative humidity89 %
Density altitude-1,670 ft. (-509 m)
Sea-level pressure102.2 kPa (1022 mB, 30.17 in.Hg)
Remarks Fully automated report
Automated weather observing station with precipitation discriminator
Flight conditions Visual Meteorological Conditions
Raw dataKPAE 140953Z AUTO 04004KT 10SM CLR 03/01 A3016 RMK AO2 SLP217 T00280011
An error has occurred. This application may no longer respond until reloaded. Reload 🗙